createdAt,value
2023-02-16T00:01:31.618Z,101265.06
2023-02-16T00:03:58.525Z,101264.61
2023-02-16T00:06:25.603Z,101260.70
2023-02-16T00:08:53.554Z,101262.84
2023-02-16T00:11:48.119Z,101266.33
2023-02-16T00:14:15.424Z,101269.86
2023-02-16T00:16:42.436Z,101271.14
2023-02-16T00:19:21.820Z,101270.52
2023-02-16T00:21:50.465Z,101274.02
2023-02-16T00:24:17.418Z,101275.11
2023-02-16T00:26:45.560Z,101273.11
2023-02-16T00:29:26.286Z,101277.63
2023-02-16T00:31:56.277Z,101276.81
2023-02-16T00:34:25.667Z,101277.91
2023-02-16T00:36:54.848Z,101280.33
2023-02-16T00:39:25.437Z,101280.55
2023-02-16T00:42:15.119Z,101277.14
2023-02-16T00:44:44.240Z,101273.76
2023-02-16T00:47:36.973Z,101272.25
2023-02-16T00:50:18.358Z,101273.18
2023-02-16T00:52:46.767Z,101273.90
2023-02-16T00:55:15.911Z,101274.94
2023-02-16T00:58:05.312Z,101277.73
2023-02-16T01:00:35.119Z,101278.96
2023-02-16T01:03:07.236Z,101277.92
2023-02-16T01:05:36.142Z,101275.88
2023-02-16T01:08:28.415Z,101275.25
2023-02-16T01:11:09.412Z,101279.61
2023-02-16T01:13:46.048Z,101279.48
2023-02-16T01:16:21.901Z,101276.57
2023-02-16T01:18:48.728Z,101279.33
2023-02-16T01:21:15.761Z,101278.64
2023-02-16T01:23:42.920Z,101280.39
2023-02-16T01:26:16.102Z,101279.74
2023-02-16T01:28:43.636Z,101280.64
2023-02-16T01:31:11.733Z,101280.83
2023-02-16T01:33:40.753Z,101286.52
2023-02-16T01:36:32.663Z,101286.02
2023-02-16T01:39:00.488Z,101287.41
2023-02-16T01:41:57.841Z,101286.73
2023-02-16T01:44:29.962Z,101287.95
2023-02-16T01:47:04.893Z,101290.73
2023-02-16T01:49:33.604Z,101292.13
2023-02-16T01:52:32.690Z,101292.14
2023-02-16T01:55:09.590Z,101294.58
2023-02-16T01:57:47.597Z,101288.39
2023-02-16T02:00:28.646Z,101289.96
2023-02-16T02:03:34.376Z,101292.20
2023-02-16T02:06:01.010Z,101294.44
2023-02-16T02:08:53.437Z,101297.39
2023-02-16T02:11:34.441Z,101298.27
2023-02-16T02:14:18.825Z,101294.85
2023-02-16T02:16:59.566Z,101293.99
2023-02-16T02:19:27.894Z,101297.13
2023-02-16T02:22:19.246Z,101300.41
2023-02-16T02:24:58.064Z,101307.64
2023-02-16T02:27:26.575Z,101308.34
2023-02-16T02:30:08.710Z,101308.69
2023-02-16T02:33:10.001Z,101309.59
2023-02-16T02:35:51.176Z,101310.61
2023-02-16T02:38:40.161Z,101307.36
2023-02-16T02:41:55.962Z,101308.75
2023-02-16T02:44:24.093Z,101306.70
2023-02-16T02:46:51.947Z,101310.67
2023-02-16T02:49:19.928Z,101311.01
2023-02-16T02:51:47.114Z,101311.88
2023-02-16T02:54:38.363Z,101314.48
2023-02-16T02:57:41.224Z,101311.39
2023-02-16T03:00:29.107Z,101311.58
2023-02-16T03:03:02.996Z,101309.71
2023-02-16T03:05:30.319Z,101308.02
2023-02-16T03:08:05.863Z,101304.61
2023-02-16T03:10:54.114Z,101299.64
2023-02-16T03:13:33.068Z,101298.62
2023-02-16T03:16:11.888Z,101298.13
2023-02-16T03:18:58.838Z,101297.11
2023-02-16T03:21:45.377Z,101297.98
2023-02-16T03:24:35.199Z,101298.00
2023-02-16T03:27:20.840Z,101298.19
2023-02-16T03:29:49.180Z,101299.06
2023-02-16T03:32:16.597Z,101295.64
2023-02-16T03:34:43.721Z,101294.79
2023-02-16T03:37:12.102Z,101292.55
2023-02-16T03:39:58.409Z,101289.82
2023-02-16T03:42:25.458Z,101293.09
2023-02-16T03:44:57.080Z,101293.94
2023-02-16T03:47:24.050Z,101291.02
2023-02-16T03:49:50.816Z,101291.02
2023-02-16T03:52:17.940Z,101291.01
2023-02-16T03:54:44.784Z,101293.08
2023-02-16T03:57:11.730Z,101289.83
2023-02-16T03:59:38.880Z,101292.73
2023-02-16T04:02:05.651Z,101290.86
2023-02-16T04:04:32.623Z,101291.04
2023-02-16T04:07:00.333Z,101292.07
2023-02-16T04:09:27.128Z,101296.20
2023-02-16T04:12:12.454Z,101295.34
2023-02-16T04:14:41.033Z,101301.38
2023-02-16T04:17:10.653Z,101303.42
2023-02-16T04:19:37.896Z,101305.83
2023-02-16T04:22:04.810Z,101310.45
2023-02-16T04:24:31.566Z,101309.59
2023-02-16T04:26:58.342Z,101304.61
2023-02-16T04:29:25.571Z,101300.33
2023-02-16T04:31:52.829Z,101298.77
2023-02-16T04:34:20.180Z,101295.86
2023-02-16T04:36:47.223Z,101291.39
2023-02-16T04:39:14.532Z,101293.30
2023-02-16T04:41:41.625Z,101294.16
2023-02-16T04:44:08.878Z,101291.06
2023-02-16T04:46:36.434Z,101290.54
2023-02-16T04:49:04.869Z,101293.97
2023-02-16T04:51:32.840Z,101293.13
2023-02-16T04:54:00.948Z,101294.67
2023-02-16T04:56:27.808Z,101293.64
2023-02-16T04:58:55.119Z,101294.66
2023-02-16T05:01:23.130Z,101291.23
2023-02-16T05:03:49.995Z,101287.63
2023-02-16T05:06:17.141Z,101290.71
2023-02-16T05:08:43.945Z,101290.71
2023-02-16T05:11:30.910Z,101289.52
2023-02-16T05:14:17.472Z,101288.84
2023-02-16T05:16:44.683Z,101290.38
2023-02-16T05:19:14.851Z,101294.84
2023-02-16T05:21:41.711Z,101296.55
2023-02-16T05:24:09.729Z,101295.00
2023-02-16T05:26:39.176Z,101296.39
2023-02-16T05:29:06.165Z,101295.36
2023-02-16T05:31:36.693Z,101295.35
2023-02-16T05:34:03.593Z,101298.78
2023-02-16T05:36:30.316Z,101301.02
2023-02-16T05:38:57.386Z,101299.30
2023-02-16T05:41:24.159Z,101301.20
2023-02-16T05:43:55.422Z,101303.41
2023-02-16T05:46:22.791Z,101301.17
2023-02-16T05:48:49.842Z,101306.48
2023-02-16T05:51:17.470Z,101307.69
2023-02-16T05:53:44.403Z,101308.01
2023-02-16T05:56:11.757Z,101305.08
2023-02-16T05:58:38.662Z,101297.33
2023-02-16T06:01:05.886Z,101300.39
2023-02-16T06:03:35.309Z,101300.34
2023-02-16T06:06:02.569Z,101304.24
2023-02-16T06:08:34.046Z,101303.66
2023-02-16T06:11:06.592Z,101302.05
2023-02-16T06:13:33.831Z,101301.63
2023-02-16T06:16:00.515Z,101300.52
2023-02-16T06:18:27.390Z,101302.49
2023-02-16T06:20:56.246Z,101298.95
2023-02-16T06:23:23.243Z,101298.17
2023-02-16T06:25:51.392Z,101291.84
2023-02-16T06:28:18.416Z,101290.71
2023-02-16T06:30:45.460Z,101287.33
2023-02-16T06:33:12.928Z,101283.41
2023-02-16T06:35:39.967Z,101283.97
2023-02-16T06:38:08.114Z,101284.21
2023-02-16T06:40:35.390Z,101289.25
2023-02-16T06:43:02.461Z,101287.22
2023-02-16T06:45:29.385Z,101287.58
2023-02-16T06:47:56.855Z,101283.77
2023-02-16T06:50:23.768Z,101286.18
2023-02-16T06:52:51.116Z,101287.55
2023-02-16T06:55:17.797Z,101283.60
2023-02-16T06:57:45.124Z,101286.04
2023-02-16T07:00:12.989Z,101288.98
2023-02-16T07:02:39.664Z,101282.95
2023-02-16T07:05:07.771Z,101277.70
2023-02-16T07:07:34.465Z,101272.00
2023-02-16T07:10:02.236Z,101265.96
2023-02-16T07:12:31.231Z,101265.92
2023-02-16T07:15:03.631Z,101271.89
2023-02-16T07:17:31.046Z,101271.45
2023-02-16T07:19:59.958Z,101266.31
2023-02-16T07:22:29.392Z,101265.02
2023-02-16T07:24:56.939Z,101265.46
2023-02-16T07:27:24.617Z,101266.97
2023-02-16T07:29:51.314Z,101266.77
2023-02-16T07:32:18.408Z,101267.45
2023-02-16T07:34:45.825Z,101261.17
2023-02-16T07:37:12.898Z,101258.86
2023-02-16T07:39:40.132Z,101257.98
2023-02-16T07:42:06.907Z,101256.39
2023-02-16T07:44:34.610Z,101253.91
2023-02-16T07:47:01.270Z,101252.39
2023-02-16T07:49:28.075Z,101248.17
2023-02-16T07:51:54.835Z,101248.31
2023-02-16T07:54:21.680Z,101247.20
2023-02-16T07:56:49.130Z,101252.88
2023-02-16T07:59:16.647Z,101252.52
2023-02-16T08:01:43.572Z,101248.01
2023-02-16T08:04:10.509Z,101247.33
2023-02-16T08:06:38.137Z,101247.66
2023-02-16T08:09:05.059Z,101242.48
2023-02-16T08:11:34.542Z,101239.38
2023-02-16T08:14:01.597Z,101244.02
2023-02-16T08:16:28.620Z,101242.98
2023-02-16T08:18:55.985Z,101236.20
2023-02-16T08:21:24.677Z,101238.39
2023-02-16T08:23:54.602Z,101236.26
2023-02-16T08:26:22.819Z,101236.58
2023-02-16T08:28:51.142Z,101235.64
2023-02-16T08:31:25.605Z,101230.70
2023-02-16T08:33:53.103Z,101230.10
2023-02-16T08:36:22.923Z,101226.26
2023-02-16T08:38:51.613Z,101227.27
2023-02-16T08:41:22.477Z,101230.18
2023-02-16T08:43:49.327Z,101226.50
2023-02-16T08:46:17.969Z,101226.24
2023-02-16T08:48:44.993Z,101230.14
2023-02-16T08:51:17.054Z,101227.33
2023-02-16T08:53:46.417Z,101232.58
2023-02-16T08:56:16.445Z,101234.62
2023-02-16T08:58:43.514Z,101231.78
2023-02-16T09:01:12.022Z,101236.33
2023-02-16T09:03:44.462Z,101236.15
2023-02-16T09:06:13.180Z,101235.41
2023-02-16T09:08:41.424Z,101229.66
2023-02-16T09:11:11.425Z,101228.52
2023-02-16T09:13:47.726Z,101222.91
2023-02-16T09:16:16.983Z,101226.71
2023-02-16T09:18:48.873Z,101221.21
2023-02-16T09:21:20.918Z,101216.25
2023-02-16T09:23:49.440Z,101208.47
2023-02-16T09:26:37.784Z,101204.56
2023-02-16T09:29:05.472Z,101201.93
2023-02-16T09:31:34.420Z,101204.36
2023-02-16T09:34:22.287Z,101203.08
2023-02-16T09:36:49.454Z,101194.15
2023-02-16T09:39:16.467Z,101188.92
2023-02-16T09:41:53.159Z,101191.05
2023-02-16T09:44:44.085Z,101189.71
2023-02-16T09:47:22.913Z,101187.90
2023-02-16T09:49:49.743Z,101186.12
2023-02-16T09:52:22.756Z,101181.75
2023-02-16T09:54:57.163Z,101180.58
2023-02-16T09:57:26.975Z,101176.86
2023-02-16T10:00:08.081Z,101176.24
2023-02-16T10:02:58.743Z,101175.59
2023-02-16T10:05:36.365Z,101171.84
2023-02-16T10:08:42.013Z,101169.17
2023-02-16T10:11:33.917Z,101163.38
2023-02-16T10:14:08.262Z,101164.31
2023-02-16T10:16:40.661Z,101166.67
2023-02-16T10:19:23.173Z,101166.13
2023-02-16T10:21:52.652Z,101165.24
2023-02-16T10:24:19.937Z,101166.56
2023-02-16T10:26:50.450Z,101163.31
2023-02-16T10:29:20.124Z,101157.42
2023-02-16T10:32:27.291Z,101152.11
2023-02-16T10:35:14.503Z,101146.88
2023-02-16T10:38:11.062Z,101145.73
2023-02-16T10:40:55.249Z,101142.74
2023-02-16T10:43:47.543Z,101142.07
2023-02-16T10:46:25.598Z,101138.92
2023-02-16T10:48:53.911Z,101133.75
2023-02-16T10:51:21.145Z,101134.48
2023-02-16T10:53:53.011Z,101133.85
2023-02-16T10:56:43.954Z,101130.86
2023-02-16T10:59:15.791Z,101126.69
2023-02-16T11:01:44.853Z,101129.52
2023-02-16T11:04:37.291Z,101131.14
2023-02-16T11:07:12.675Z,101124.13
2023-02-16T11:09:40.366Z,101120.58
2023-02-16T11:12:14.994Z,101118.73
2023-02-16T11:14:49.148Z,101116.91
2023-02-16T11:17:19.678Z,101115.61
2023-02-16T11:19:49.864Z,101111.84
2023-02-16T11:22:37.113Z,101105.55
2023-02-16T11:25:21.517Z,101103.77
2023-02-16T11:27:56.485Z,101103.05
2023-02-16T11:30:32.343Z,101099.06
2023-02-16T11:33:01.177Z,101098.50
2023-02-16T11:35:30.681Z,101089.80
2023-02-16T11:37:58.341Z,101088.57
2023-02-16T11:40:30.250Z,101086.93
2023-02-16T11:42:58.266Z,101085.23
2023-02-16T11:45:31.368Z,101080.92
2023-02-16T11:48:10.591Z,101076.52
2023-02-16T11:50:39.221Z,101075.48
2023-02-16T11:53:09.200Z,101073.95
2023-02-16T11:55:38.809Z,101068.30
2023-02-16T11:58:12.770Z,101066.27
2023-02-16T12:00:41.538Z,101062.48
2023-02-16T12:03:19.272Z,101055.02
2023-02-16T12:06:07.388Z,101053.14
2023-02-16T12:08:43.299Z,101052.41
2023-02-16T12:11:25.780Z,101052.52
2023-02-16T12:14:28.623Z,101047.69
2023-02-16T12:17:04.029Z,101037.52
2023-02-16T12:19:39.955Z,101032.08
2023-02-16T12:22:22.260Z,101030.63
2023-02-16T12:25:03.732Z,101026.77
2023-02-16T12:27:38.090Z,101027.84
2023-02-16T12:30:09.236Z,101025.78
2023-02-16T12:32:44.396Z,101017.10
2023-02-16T12:35:31.156Z,101013.64
2023-02-16T12:38:20.803Z,101010.46
2023-02-16T12:40:56.969Z,101010.71
2023-02-16T12:43:27.951Z,101011.43
2023-02-16T12:45:56.438Z,101007.43
2023-02-16T12:48:42.705Z,101003.56
2023-02-16T12:51:14.741Z,100998.68
2023-02-16T12:53:46.408Z,101001.02
2023-02-16T12:56:20.567Z,100998.58
2023-02-16T12:58:52.756Z,100994.56
2023-02-16T13:01:23.058Z,100991.50
2023-02-16T13:04:01.280Z,100988.58
2023-02-16T13:06:43.280Z,100986.67
2023-02-16T13:09:45.633Z,100987.50
2023-02-16T13:12:28.409Z,100982.38
2023-02-16T13:15:22.337Z,100982.88
2023-02-16T13:17:57.952Z,100980.27
2023-02-16T13:20:27.112Z,100979.31
2023-02-16T13:23:16.008Z,100977.56
2023-02-16T13:26:20.204Z,100977.01
2023-02-16T13:29:07.335Z,100975.42
2023-02-16T13:31:47.282Z,100970.91
2023-02-16T13:34:24.301Z,100967.59
2023-02-16T13:37:12.358Z,100964.64
2023-02-16T13:39:55.570Z,100965.73
2023-02-16T13:42:40.603Z,100960.60
2023-02-16T13:45:20.562Z,100959.80
2023-02-16T13:47:47.649Z,100961.44
2023-02-16T13:50:26.349Z,100962.20
2023-02-16T13:52:55.308Z,100968.02
2023-02-16T13:55:36.891Z,100968.17
2023-02-16T13:58:12.902Z,100963.76
2023-02-16T14:00:50.159Z,100959.63
2023-02-16T14:03:21.637Z,100953.29
2023-02-16T14:05:53.062Z,100951.46
2023-02-16T14:08:28.003Z,100949.27
2023-02-16T14:11:00.227Z,100944.43
2023-02-16T14:13:34.911Z,100945.14
2023-02-16T14:16:16.564Z,100947.09
2023-02-16T14:18:45.687Z,100949.77
2023-02-16T14:21:27.947Z,100950.52
2023-02-16T14:23:55.934Z,100947.77
2023-02-16T14:26:25.757Z,100944.33
2023-02-16T14:29:17.101Z,100936.11
2023-02-16T14:31:52.858Z,100935.98
2023-02-16T14:34:45.984Z,100932.24
2023-02-16T14:37:16.428Z,100928.30
2023-02-16T14:40:06.590Z,100927.12
2023-02-16T14:42:32.031Z,100926.90
2023-02-16T14:45:19.475Z,100922.79
2023-02-16T14:48:08.662Z,100920.91
2023-02-16T14:51:16.006Z,100921.29
2023-02-16T14:54:21.299Z,100918.86
2023-02-16T14:56:56.296Z,100917.00
2023-02-16T14:59:28.371Z,100912.20
2023-02-16T15:01:55.393Z,100909.27
2023-02-16T15:04:29.734Z,100909.66
2023-02-16T15:06:57.647Z,100908.14
2023-02-16T15:09:33.095Z,100906.60
2023-02-16T15:12:22.077Z,100902.48
2023-02-16T15:14:52.652Z,100900.81
2023-02-16T15:17:23.868Z,100898.80
2023-02-16T15:19:51.939Z,100897.51
2023-02-16T15:22:21.465Z,100900.83
2023-02-16T15:24:58.289Z,100897.37
2023-02-16T15:27:25.445Z,100894.59
2023-02-16T15:30:05.697Z,100892.86
2023-02-16T15:32:32.737Z,100896.55
2023-02-16T15:35:13.439Z,100892.75
2023-02-16T15:37:40.546Z,100889.28
2023-02-16T15:40:30.449Z,100888.58
2023-02-16T15:43:09.188Z,100888.04
2023-02-16T15:45:37.456Z,100887.52
2023-02-16T15:48:25.137Z,100886.81
2023-02-16T15:50:54.514Z,100891.46
2023-02-16T15:53:48.872Z,100891.28
2023-02-16T15:56:27.414Z,100888.52
2023-02-16T15:58:55.434Z,100881.91
2023-02-16T16:01:32.370Z,100881.20
2023-02-16T16:04:20.324Z,100880.34
2023-02-16T16:06:47.760Z,100878.58
2023-02-16T16:09:21.053Z,100875.14
2023-02-16T16:11:48.468Z,100877.92
2023-02-16T16:14:15.491Z,100878.45
2023-02-16T16:16:43.428Z,100878.79
2023-02-16T16:19:33.982Z,100877.92
2023-02-16T16:22:01.968Z,100876.20
2023-02-16T16:24:42.756Z,100875.15
2023-02-16T16:27:11.183Z,100873.24
2023-02-16T16:29:46.971Z,100870.31
2023-02-16T16:32:24.868Z,100869.30
2023-02-16T16:34:55.530Z,100864.35
2023-02-16T16:37:31.170Z,100862.81
2023-02-16T16:40:06.326Z,100861.79
2023-02-16T16:42:36.007Z,100861.83
2023-02-16T16:45:33.129Z,100855.98
2023-02-16T16:47:59.989Z,100848.91
2023-02-16T16:50:36.741Z,100846.33
2023-02-16T16:53:30.269Z,100843.55
2023-02-16T16:55:57.609Z,100837.67
2023-02-16T16:58:24.386Z,100837.52
2023-02-16T17:00:51.823Z,100834.23
2023-02-16T17:03:19.039Z,100832.16
2023-02-16T17:05:46.846Z,100831.14
2023-02-16T17:08:14.650Z,100828.50
2023-02-16T17:10:44.648Z,100829.54
2023-02-16T17:13:17.443Z,100826.25
2023-02-16T17:15:51.770Z,100821.44
2023-02-16T17:18:20.494Z,100819.93
2023-02-16T17:20:47.499Z,100814.43
2023-02-16T17:23:18.550Z,100818.11
2023-02-16T17:25:45.599Z,100817.44
2023-02-16T17:28:13.875Z,100810.00
2023-02-16T17:30:41.837Z,100806.22
2023-02-16T17:33:09.344Z,100800.84
2023-02-16T17:35:37.842Z,100805.04
2023-02-16T17:38:26.041Z,100805.37
2023-02-16T17:40:54.521Z,100802.59
2023-02-16T17:43:22.603Z,100797.04
2023-02-16T17:45:50.672Z,100792.77
2023-02-16T17:48:28.289Z,100793.88
2023-02-16T17:50:56.330Z,100793.20
2023-02-16T17:53:24.075Z,100793.73
2023-02-16T17:55:52.594Z,100794.62
2023-02-16T17:58:23.322Z,100790.27
2023-02-16T18:00:50.611Z,100789.23
2023-02-16T18:03:18.528Z,100786.49
2023-02-16T18:05:46.039Z,100786.52
2023-02-16T18:08:13.022Z,100785.32
2023-02-16T18:10:42.210Z,100781.16
2023-02-16T18:13:11.195Z,100773.98
2023-02-16T18:15:39.864Z,100773.20
2023-02-16T18:18:07.301Z,100770.11
2023-02-16T18:20:34.646Z,100769.08
2023-02-16T18:23:02.135Z,100768.05
2023-02-16T18:25:29.241Z,100763.23
2023-02-16T18:27:56.328Z,100760.14
2023-02-16T18:30:23.625Z,100759.60
2023-02-16T18:32:51.414Z,100758.23
2023-02-16T18:35:18.369Z,100755.48
2023-02-16T18:37:45.489Z,100758.06
2023-02-16T18:40:15.403Z,100756.34
2023-02-16T18:42:44.193Z,100752.36
2023-02-16T18:45:11.490Z,100749.42
2023-02-16T18:47:38.544Z,100747.18
2023-02-16T18:50:05.794Z,100739.73
2023-02-16T18:52:32.841Z,100738.53
2023-02-16T18:54:59.875Z,100731.96
2023-02-16T18:57:26.577Z,100730.57
2023-02-16T18:59:53.586Z,100730.02
2023-02-16T19:02:20.717Z,100729.49
2023-02-16T19:04:47.659Z,100729.80
2023-02-16T19:07:14.949Z,100724.44
2023-02-16T19:09:42.675Z,100721.14
2023-02-16T19:12:09.930Z,100717.15
2023-02-16T19:14:37.119Z,100713.31
2023-02-16T19:17:05.615Z,100708.61
2023-02-16T19:19:32.756Z,100706.19
2023-02-16T19:21:59.893Z,100701.50
2023-02-16T19:24:27.086Z,100698.69
2023-02-16T19:26:56.719Z,100697.30
2023-02-16T19:29:23.662Z,100695.20
2023-02-16T19:31:50.714Z,100690.38
2023-02-16T19:40:51.154Z,100682.06
2023-02-16T19:43:20.579Z,100678.34
2023-02-16T19:45:47.519Z,100677.14
2023-02-16T19:48:18.540Z,100671.77
2023-02-16T19:50:46.582Z,100670.42
2023-02-16T19:53:13.990Z,100672.36
2023-02-16T19:55:42.502Z,100668.41
2023-02-16T19:58:09.465Z,100667.59
2023-02-16T20:00:37.788Z,100666.42
2023-02-16T20:03:05.177Z,100664.69
2023-02-16T20:05:32.861Z,100661.70
2023-02-16T20:08:01.154Z,100658.20
2023-02-16T20:10:28.395Z,100653.00
2023-02-16T20:12:55.726Z,100647.77
2023-02-16T20:15:23.880Z,100642.19
2023-02-16T20:17:52.193Z,100638.54
2023-02-16T20:20:18.966Z,100641.46
2023-02-16T20:22:46.447Z,100638.67
2023-02-16T20:25:13.511Z,100632.09
2023-02-16T20:27:43.161Z,100626.35
2023-02-16T20:30:19.205Z,100622.01
2023-02-16T20:32:48.220Z,100619.24
2023-02-16T20:35:15.119Z,100615.08
2023-02-16T20:37:43.270Z,100611.42
2023-02-16T20:40:12.476Z,100608.11
2023-02-16T20:42:42.610Z,100608.91
2023-02-16T20:45:09.558Z,100609.05
2023-02-16T20:47:36.367Z,100602.25
2023-02-16T20:50:03.847Z,100602.88
2023-02-16T20:52:30.882Z,100602.66
2023-02-16T20:54:58.105Z,100601.41
2023-02-16T20:57:27.295Z,100597.45
2023-02-16T20:59:55.295Z,100597.25
2023-02-16T21:02:33.241Z,100594.66
2023-02-16T21:05:01.186Z,100592.77
2023-02-16T21:07:28.648Z,100588.90
2023-02-16T21:09:55.553Z,100586.27
2023-02-16T21:19:25.677Z,100572.73
2023-02-16T21:21:52.561Z,100570.40
2023-02-16T21:24:19.583Z,100566.58
2023-02-16T21:26:46.729Z,100562.36
2023-02-16T21:29:13.444Z,100564.96
2023-02-16T21:31:40.464Z,100563.08
2023-02-16T21:34:08.297Z,100563.11
2023-02-16T21:36:37.002Z,100559.29
2023-02-16T21:39:06.951Z,100558.78
2023-02-16T21:41:34.772Z,100556.91
2023-02-16T21:44:46.242Z,100552.43
2023-02-16T21:47:33.803Z,100555.19
2023-02-16T21:50:01.033Z,100553.84
2023-02-16T21:52:27.733Z,100550.71
2023-02-16T21:55:13.314Z,100547.07
2023-02-16T21:57:40.243Z,100542.95
2023-02-16T22:00:14.881Z,100537.05
2023-02-16T22:02:41.763Z,100535.16
2023-02-16T22:05:11.183Z,100532.27
2023-02-16T22:07:38.525Z,100530.77
2023-02-16T22:10:09.002Z,100526.15
2023-02-16T22:12:37.854Z,100523.48
2023-02-16T22:15:05.292Z,100515.81
2023-02-16T22:17:34.415Z,100517.14
2023-02-16T22:20:01.569Z,100509.04
2023-02-16T22:22:33.090Z,100509.75
2023-02-16T22:25:00.607Z,100509.95
2023-02-16T22:27:33.855Z,100510.15
2023-02-16T22:30:01.001Z,100503.58
2023-02-16T22:32:27.965Z,100499.79
2023-02-16T22:34:54.747Z,100496.34
2023-02-16T22:37:21.833Z,100492.21
2023-02-16T22:39:48.849Z,100486.19
2023-02-16T22:42:15.632Z,100487.61
2023-02-16T22:44:42.705Z,100485.77
2023-02-16T22:47:11.542Z,100482.39
2023-02-16T22:49:43.575Z,100476.06
2023-02-16T22:52:13.795Z,100472.73
2023-02-16T22:54:41.150Z,100473.36
2023-02-16T22:57:08.868Z,100467.73
2023-02-16T22:59:36.665Z,100457.71
2023-02-16T23:02:03.591Z,100454.38
2023-02-16T23:04:30.407Z,100455.02
2023-02-16T23:06:57.430Z,100453.55
2023-02-16T23:09:24.370Z,100450.66
2023-02-16T23:11:51.588Z,100445.67
2023-02-16T23:14:18.556Z,100446.27
2023-02-16T23:16:46.978Z,100441.48
2023-02-16T23:19:15.454Z,100437.86
2023-02-16T23:21:42.268Z,100434.26
2023-02-16T23:24:17.212Z,100428.09
2023-02-16T23:26:44.699Z,100423.98
2023-02-16T23:29:11.709Z,100421.98
2023-02-16T23:31:40.281Z,100422.44
2023-02-16T23:34:07.596Z,100418.20
2023-02-16T23:36:35.289Z,100413.23
2023-02-16T23:39:05.681Z,100413.66
2023-02-16T23:41:32.422Z,100414.21
2023-02-16T23:44:01.163Z,100414.95
2023-02-16T23:46:28.203Z,100411.20
2023-02-16T23:48:55.045Z,100405.17
2023-02-16T23:51:21.673Z,100398.45
2023-02-16T23:53:48.756Z,100399.89
2023-02-16T23:56:18.377Z,100399.23
2023-02-16T23:58:45.305Z,100396.87
